sensor_id;sensor_type;location;lat;lon;timestamp;P1;durP1;ratioP1;P2;durP2;ratioP2
7931;SDS011;4011;49.424;10.894;2023-07-22T00:02:48;4.38;;;2.85;;
7931;SDS011;4011;49.424;10.894;2023-07-22T00:08:10;3.85;;;2.53;;
7931;SDS011;4011;49.424;10.894;2023-07-22T00:13:31;4.65;;;2.80;;
7931;SDS011;4011;49.424;10.894;2023-07-22T00:18:54;4.00;;;2.30;;
7931;SDS011;4011;49.424;10.894;2023-07-22T00:24:15;3.70;;;2.42;;
7931;SDS011;4011;49.424;10.894;2023-07-22T00:29:37;4.10;;;2.83;;
7931;SDS011;4011;49.424;10.894;2023-07-22T00:35:06;3.67;;;2.40;;
7931;SDS011;4011;49.424;10.894;2023-07-22T00:40:29;3.50;;;2.47;;
7931;SDS011;4011;49.424;10.894;2023-07-22T00:45:52;5.00;;;2.70;;
7931;SDS011;4011;49.424;10.894;2023-07-22T00:51:17;3.80;;;2.40;;
7931;SDS011;4011;49.424;10.894;2023-07-22T00:56:39;4.82;;;2.40;;
7931;SDS011;4011;49.424;10.894;2023-07-22T01:02:02;3.92;;;2.42;;
7931;SDS011;4011;49.424;10.894;2023-07-22T01:07:25;4.57;;;2.63;;
7931;SDS011;4011;49.424;10.894;2023-07-22T01:12:46;4.93;;;2.50;;
7931;SDS011;4011;49.424;10.894;2023-07-22T01:18:08;3.80;;;2.35;;
7931;SDS011;4011;49.424;10.894;2023-07-22T01:23:31;5.05;;;2.60;;
7931;SDS011;4011;49.424;10.894;2023-07-22T01:29:01;3.45;;;2.28;;
7931;SDS011;4011;49.424;10.894;2023-07-22T01:34:22;3.97;;;2.60;;
7931;SDS011;4011;49.424;10.894;2023-07-22T01:39:46;3.45;;;2.22;;
7931;SDS011;4011;49.424;10.894;2023-07-22T01:45:08;3.70;;;2.17;;
7931;SDS011;4011;49.424;10.894;2023-07-22T01:50:30;4.47;;;2.50;;
7931;SDS011;4011;49.424;10.894;2023-07-22T01:55:53;4.13;;;2.47;;
7931;SDS011;4011;49.424;10.894;2023-07-22T02:01:15;4.32;;;2.35;;
7931;SDS011;4011;49.424;10.894;2023-07-22T02:06:37;4.10;;;2.45;;
7931;SDS011;4011;49.424;10.894;2023-07-22T02:12:00;4.00;;;2.88;;
7931;SDS011;4011;49.424;10.894;2023-07-22T02:17:24;4.10;;;2.83;;
7931;SDS011;4011;49.424;10.894;2023-07-22T02:22:45;4.53;;;2.50;;
7931;SDS011;4011;49.424;10.894;2023-07-22T02:28:09;4.05;;;2.60;;
7931;SDS011;4011;49.424;10.894;2023-07-22T02:33:31;4.40;;;2.60;;
7931;SDS011;4011;49.424;10.894;2023-07-22T02:38:53;3.85;;;3.20;;
7931;SDS011;4011;49.424;10.894;2023-07-22T02:44:17;3.33;;;2.40;;
7931;SDS011;4011;49.424;10.894;2023-07-22T02:49:38;3.83;;;2.63;;
7931;SDS011;4011;49.424;10.894;2023-07-22T02:55:04;3.72;;;2.30;;
7931;SDS011;4011;49.424;10.894;2023-07-22T03:00:29;3.45;;;2.67;;
7931;SDS011;4011;49.424;10.894;2023-07-22T03:05:51;3.90;;;2.50;;
7931;SDS011;4011;49.424;10.894;2023-07-22T03:11:13;4.15;;;2.65;;
7931;SDS011;4011;49.424;10.894;2023-07-22T03:16:36;3.10;;;2.25;;
7931;SDS011;4011;49.424;10.894;2023-07-22T03:21:57;3.90;;;2.80;;
7931;SDS011;4011;49.424;10.894;2023-07-22T03:27:19;3.60;;;2.50;;
7931;SDS011;4011;49.424;10.894;2023-07-22T03:32:43;4.15;;;2.35;;
7931;SDS011;4011;49.424;10.894;2023-07-22T03:38:04;4.15;;;2.47;;
7931;SDS011;4011;49.424;10.894;2023-07-22T03:43:26;4.47;;;2.55;;
7931;SDS011;4011;49.424;10.894;2023-07-22T03:48:49;4.20;;;2.70;;
7931;SDS011;4011;49.424;10.894;2023-07-22T03:54:11;4.30;;;2.50;;
7931;SDS011;4011;49.424;10.894;2023-07-22T03:59:32;3.97;;;2.35;;
7931;SDS011;4011;49.424;10.894;2023-07-22T04:04:55;3.85;;;2.53;;
7931;SDS011;4011;49.424;10.894;2023-07-22T04:10:17;5.55;;;3.08;;
7931;SDS011;4011;49.424;10.894;2023-07-22T04:15:38;4.60;;;2.58;;
7931;SDS011;4011;49.424;10.894;2023-07-22T04:21:01;4.72;;;2.40;;
7931;SDS011;4011;49.424;10.894;2023-07-22T04:26:23;4.07;;;2.40;;
7931;SDS011;4011;49.424;10.894;2023-07-22T04:31:45;4.80;;;2.70;;
7931;SDS011;4011;49.424;10.894;2023-07-22T04:37:08;5.00;;;2.60;;
7931;SDS011;4011;49.424;10.894;2023-07-22T04:42:30;5.55;;;2.78;;
7931;SDS011;4011;49.424;10.894;2023-07-22T04:47:52;3.92;;;2.50;;
7931;SDS011;4011;49.424;10.894;2023-07-22T04:53:16;4.47;;;2.85;;
7931;SDS011;4011;49.424;10.894;2023-07-22T04:58:37;4.85;;;3.03;;
7931;SDS011;4011;49.424;10.894;2023-07-22T05:03:59;4.70;;;2.55;;
7931;SDS011;4011;49.424;10.894;2023-07-22T05:09:22;4.25;;;2.53;;
7931;SDS011;4011;49.424;10.894;2023-07-22T05:14:45;5.85;;;2.53;;
7931;SDS011;4011;49.424;10.894;2023-07-22T05:20:08;4.15;;;3.15;;
7931;SDS011;4011;49.424;10.894;2023-07-22T05:25:32;4.10;;;2.70;;
7931;SDS011;4011;49.424;10.894;2023-07-22T05:30:55;5.72;;;2.95;;
7931;SDS011;4011;49.424;10.894;2023-07-22T05:36:17;4.10;;;2.90;;
7931;SDS011;4011;49.424;10.894;2023-07-22T05:41:40;4.65;;;3.80;;
7931;SDS011;4011;49.424;10.894;2023-07-22T05:47:02;4.30;;;2.90;;
7931;SDS011;4011;49.424;10.894;2023-07-22T05:52:24;5.18;;;2.80;;
7931;SDS011;4011;49.424;10.894;2023-07-22T05:57:49;4.03;;;2.92;;
7931;SDS011;4011;49.424;10.894;2023-07-22T06:03:11;4.57;;;3.53;;
7931;SDS011;4011;49.424;10.894;2023-07-22T06:08:33;4.57;;;2.83;;
7931;SDS011;4011;49.424;10.894;2023-07-22T06:13:56;4.53;;;2.58;;
7931;SDS011;4011;49.424;10.894;2023-07-22T06:19:17;4.20;;;2.70;;
7931;SDS011;4011;49.424;10.894;2023-07-22T06:24:39;6.53;;;3.17;;
7931;SDS011;4011;49.424;10.894;2023-07-22T06:30:03;5.65;;;2.95;;
7931;SDS011;4011;49.424;10.894;2023-07-22T06:35:24;4.13;;;2.60;;
7931;SDS011;4011;49.424;10.894;2023-07-22T06:40:46;5.15;;;2.65;;
7931;SDS011;4011;49.424;10.894;2023-07-22T06:46:09;3.90;;;2.60;;
7931;SDS011;4011;49.424;10.894;2023-07-22T06:51:30;4.40;;;3.58;;
7931;SDS011;4011;49.424;10.894;2023-07-22T06:56:52;3.90;;;2.70;;
7931;SDS011;4011;49.424;10.894;2023-07-22T07:02:15;4.72;;;2.83;;
7931;SDS011;4011;49.424;10.894;2023-07-22T07:07:37;6.53;;;2.90;;
7931;SDS011;4011;49.424;10.894;2023-07-22T07:12:59;4.05;;;3.10;;
7931;SDS011;4011;49.424;10.894;2023-07-22T07:18:22;4.45;;;3.00;;
7931;SDS011;4011;49.424;10.894;2023-07-22T07:29:07;6.07;;;2.80;;
7931;SDS011;4011;49.424;10.894;2023-07-22T07:34:30;4.63;;;3.22;;
7931;SDS011;4011;49.424;10.894;2023-07-22T07:39:52;5.20;;;3.03;;
7931;SDS011;4011;49.424;10.894;2023-07-22T07:45:13;5.13;;;2.90;;
7931;SDS011;4011;49.424;10.894;2023-07-22T07:50:36;4.78;;;2.83;;
7931;SDS011;4011;49.424;10.894;2023-07-22T07:55:58;4.25;;;3.03;;
7931;SDS011;4011;49.424;10.894;2023-07-22T08:01:19;4.05;;;3.63;;
7931;SDS011;4011;49.424;10.894;2023-07-22T08:06:42;5.00;;;2.90;;
7931;SDS011;4011;49.424;10.894;2023-07-22T08:12:05;5.35;;;3.33;;
7931;SDS011;4011;49.424;10.894;2023-07-22T08:17:28;4.30;;;2.67;;
7931;SDS011;4011;49.424;10.894;2023-07-22T08:22:51;4.60;;;3.45;;
7931;SDS011;4011;49.424;10.894;2023-07-22T08:28:13;5.60;;;2.85;;
7931;SDS011;4011;49.424;10.894;2023-07-22T08:33:35;4.78;;;2.72;;
7931;SDS011;4011;49.424;10.894;2023-07-22T08:38:58;4.90;;;2.92;;
7931;SDS011;4011;49.424;10.894;2023-07-22T08:44:20;6.35;;;3.63;;
7931;SDS011;4011;49.424;10.894;2023-07-22T08:49:42;4.15;;;3.15;;
7931;SDS011;4011;49.424;10.894;2023-07-22T08:55:08;4.68;;;2.85;;
7931;SDS011;4011;49.424;10.894;2023-07-22T09:00:31;5.70;;;3.10;;
7931;SDS011;4011;49.424;10.894;2023-07-22T09:05:53;5.03;;;3.92;;
7931;SDS011;4011;49.424;10.894;2023-07-22T09:11:16;5.15;;;3.90;;
7931;SDS011;4011;49.424;10.894;2023-07-22T09:16:39;4.97;;;2.95;;
7931;SDS011;4011;49.424;10.894;2023-07-22T09:22:01;5.28;;;3.38;;
7931;SDS011;4011;49.424;10.894;2023-07-22T09:27:33;5.40;;;3.80;;
7931;SDS011;4011;49.424;10.894;2023-07-22T09:32:55;5.38;;;3.22;;
7931;SDS011;4011;49.424;10.894;2023-07-22T09:38:22;5.78;;;3.42;;
7931;SDS011;4011;49.424;10.894;2023-07-22T09:43:46;5.78;;;3.47;;
7931;SDS011;4011;49.424;10.894;2023-07-22T09:49:09;5.00;;;4.22;;
7931;SDS011;4011;49.424;10.894;2023-07-22T09:54:31;4.13;;;3.20;;
7931;SDS011;4011;49.424;10.894;2023-07-22T09:59:54;4.90;;;3.17;;
7931;SDS011;4011;49.424;10.894;2023-07-22T10:05:17;4.03;;;3.17;;
7931;SDS011;4011;49.424;10.894;2023-07-22T10:10:39;5.45;;;4.15;;
7931;SDS011;4011;49.424;10.894;2023-07-22T10:16:01;4.65;;;3.40;;
7931;SDS011;4011;49.424;10.894;2023-07-22T10:21:23;5.35;;;3.10;;
7931;SDS011;4011;49.424;10.894;2023-07-22T10:26:45;4.90;;;3.25;;
7931;SDS011;4011;49.424;10.894;2023-07-22T10:32:12;5.50;;;3.97;;
7931;SDS011;4011;49.424;10.894;2023-07-22T10:37:33;7.10;;;3.45;;
7931;SDS011;4011;49.424;10.894;2023-07-22T10:43:00;4.78;;;3.20;;
7931;SDS011;4011;49.424;10.894;2023-07-22T10:48:23;4.40;;;3.13;;
7931;SDS011;4011;49.424;10.894;2023-07-22T10:53:47;5.25;;;3.90;;
7931;SDS011;4011;49.424;10.894;2023-07-22T10:59:09;4.72;;;2.90;;
7931;SDS011;4011;49.424;10.894;2023-07-22T11:04:33;4.15;;;3.08;;
7931;SDS011;4011;49.424;10.894;2023-07-22T11:09:55;4.57;;;3.00;;
7931;SDS011;4011;49.424;10.894;2023-07-22T11:15:17;4.72;;;3.75;;
7931;SDS011;4011;49.424;10.894;2023-07-22T11:20:40;4.85;;;3.33;;
7931;SDS011;4011;49.424;10.894;2023-07-22T11:26:02;6.32;;;3.38;;
7931;SDS011;4011;49.424;10.894;2023-07-22T11:31:30;6.68;;;3.10;;
7931;SDS011;4011;49.424;10.894;2023-07-22T11:36:53;5.43;;;3.65;;
7931;SDS011;4011;49.424;10.894;2023-07-22T11:42:15;4.63;;;3.20;;
7931;SDS011;4011;49.424;10.894;2023-07-22T11:47:36;5.43;;;3.55;;
7931;SDS011;4011;49.424;10.894;2023-07-22T11:53:00;4.05;;;3.00;;
7931;SDS011;4011;49.424;10.894;2023-07-22T11:58:23;5.22;;;3.60;;
7931;SDS011;4011;49.424;10.894;2023-07-22T12:03:45;5.13;;;2.90;;
7931;SDS011;4011;49.424;10.894;2023-07-22T12:09:09;5.78;;;3.33;;
7931;SDS011;4011;49.424;10.894;2023-07-22T12:14:34;4.47;;;2.90;;
7931;SDS011;4011;49.424;10.894;2023-07-22T12:19:56;3.70;;;3.28;;
7931;SDS011;4011;49.424;10.894;2023-07-22T12:25:19;3.90;;;3.20;;
7931;SDS011;4011;49.424;10.894;2023-07-22T12:30:41;5.53;;;3.05;;
7931;SDS011;4011;49.424;10.894;2023-07-22T12:36:02;5.70;;;2.95;;
7931;SDS011;4011;49.424;10.894;2023-07-22T12:41:25;3.95;;;2.67;;
7931;SDS011;4011;49.424;10.894;2023-07-22T12:46:47;4.60;;;3.83;;
7931;SDS011;4011;49.424;10.894;2023-07-22T12:52:09;5.25;;;3.20;;
7931;SDS011;4011;49.424;10.894;2023-07-22T12:57:33;4.00;;;2.90;;
7931;SDS011;4011;49.424;10.894;2023-07-22T13:02:55;4.40;;;3.00;;
7931;SDS011;4011;49.424;10.894;2023-07-22T13:08:17;6.65;;;3.70;;
7931;SDS011;4011;49.424;10.894;2023-07-22T13:13:39;5.90;;;3.30;;
7931;SDS011;4011;49.424;10.894;2023-07-22T13:19:01;5.25;;;3.28;;
7931;SDS011;4011;49.424;10.894;2023-07-22T13:24:23;5.43;;;2.97;;
7931;SDS011;4011;49.424;10.894;2023-07-22T13:29:46;5.03;;;3.70;;
7931;SDS011;4011;49.424;10.894;2023-07-22T13:35:07;4.40;;;3.35;;
7931;SDS011;4011;49.424;10.894;2023-07-22T13:40:30;5.10;;;3.17;;
7931;SDS011;4011;49.424;10.894;2023-07-22T13:45:53;3.85;;;2.83;;
7931;SDS011;4011;49.424;10.894;2023-07-22T13:51:15;4.32;;;3.13;;
7931;SDS011;4011;49.424;10.894;2023-07-22T13:56:37;4.57;;;3.13;;
7931;SDS011;4011;49.424;10.894;2023-07-22T14:02:00;5.32;;;2.88;;
7931;SDS011;4011;49.424;10.894;2023-07-22T14:07:21;5.57;;;3.00;;
7931;SDS011;4011;49.424;10.894;2023-07-22T14:12:43;5.57;;;3.15;;
7931;SDS011;4011;49.424;10.894;2023-07-22T14:18:06;5.40;;;3.78;;
7931;SDS011;4011;49.424;10.894;2023-07-22T14:23:28;4.55;;;2.83;;
7931;SDS011;4011;49.424;10.894;2023-07-22T14:28:49;5.32;;;2.65;;
7931;SDS011;4011;49.424;10.894;2023-07-22T14:34:12;3.70;;;2.60;;
7931;SDS011;4011;49.424;10.894;2023-07-22T14:39:34;4.97;;;3.20;;
7931;SDS011;4011;49.424;10.894;2023-07-22T14:44:56;4.78;;;2.60;;
7931;SDS011;4011;49.424;10.894;2023-07-22T14:50:18;4.55;;;2.70;;
7931;SDS011;4011;49.424;10.894;2023-07-22T14:55:40;4.07;;;2.60;;
7931;SDS011;4011;49.424;10.894;2023-07-22T15:01:01;5.07;;;2.70;;
7931;SDS011;4011;49.424;10.894;2023-07-22T15:06:24;4.20;;;3.05;;
7931;SDS011;4011;49.424;10.894;2023-07-22T15:11:46;3.92;;;2.40;;
7931;SDS011;4011;49.424;10.894;2023-07-22T15:17:07;4.03;;;2.50;;
7931;SDS011;4011;49.424;10.894;2023-07-22T15:22:30;4.78;;;2.78;;
7931;SDS011;4011;49.424;10.894;2023-07-22T15:27:52;5.20;;;2.90;;
7931;SDS011;4011;49.424;10.894;2023-07-22T15:33:14;4.82;;;2.55;;
7931;SDS011;4011;49.424;10.894;2023-07-22T15:38:38;4.47;;;2.80;;
7931;SDS011;4011;49.424;10.894;2023-07-22T15:43:59;5.80;;;2.60;;
7931;SDS011;4011;49.424;10.894;2023-07-22T15:49:21;5.47;;;2.90;;
7931;SDS011;4011;49.424;10.894;2023-07-22T15:54:44;4.00;;;3.22;;
7931;SDS011;4011;49.424;10.894;2023-07-22T16:00:06;3.95;;;2.42;;
7931;SDS011;4011;49.424;10.894;2023-07-22T16:05:30;4.63;;;2.63;;
7931;SDS011;4011;49.424;10.894;2023-07-22T16:10:54;7.43;;;3.85;;
7931;SDS011;4011;49.424;10.894;2023-07-22T16:16:17;8.02;;;3.63;;
7931;SDS011;4011;49.424;10.894;2023-07-22T16:21:38;8.85;;;3.50;;
7931;SDS011;4011;49.424;10.894;2023-07-22T16:27:01;8.07;;;3.58;;
7931;SDS011;4011;49.424;10.894;2023-07-22T16:32:23;6.20;;;3.35;;
7931;SDS011;4011;49.424;10.894;2023-07-22T16:37:44;8.80;;;4.80;;
7931;SDS011;4011;49.424;10.894;2023-07-22T16:43:07;6.90;;;3.90;;
7931;SDS011;4011;49.424;10.894;2023-07-22T16:48:29;6.80;;;3.63;;
7931;SDS011;4011;49.424;10.894;2023-07-22T16:53:52;6.00;;;3.50;;
7931;SDS011;4011;49.424;10.894;2023-07-22T16:59:15;6.55;;;3.47;;
7931;SDS011;4011;49.424;10.894;2023-07-22T17:04:37;7.65;;;3.40;;
7931;SDS011;4011;49.424;10.894;2023-07-22T17:09:59;6.03;;;2.88;;
7931;SDS011;4011;49.424;10.894;2023-07-22T17:15:36;6.60;;;3.00;;
7931;SDS011;4011;49.424;10.894;2023-07-22T17:20:58;6.97;;;3.40;;
7931;SDS011;4011;49.424;10.894;2023-07-22T17:26:20;7.22;;;2.90;;
7931;SDS011;4011;49.424;10.894;2023-07-22T17:31:43;5.70;;;2.80;;
7931;SDS011;4011;49.424;10.894;2023-07-22T17:37:05;5.78;;;3.03;;
7931;SDS011;4011;49.424;10.894;2023-07-22T17:42:27;4.57;;;3.22;;
7931;SDS011;4011;49.424;10.894;2023-07-22T17:47:49;4.82;;;2.83;;
7931;SDS011;4011;49.424;10.894;2023-07-22T17:53:12;3.80;;;2.40;;
7931;SDS011;4011;49.424;10.894;2023-07-22T17:58:34;4.03;;;2.55;;
7931;SDS011;4011;49.424;10.894;2023-07-22T18:03:58;4.47;;;2.83;;
7931;SDS011;4011;49.424;10.894;2023-07-22T18:09:19;5.40;;;3.35;;
7931;SDS011;4011;49.424;10.894;2023-07-22T18:14:41;4.75;;;2.38;;
7931;SDS011;4011;49.424;10.894;2023-07-22T18:20:05;4.60;;;2.72;;
7931;SDS011;4011;49.424;10.894;2023-07-22T18:25:27;3.50;;;2.70;;
7931;SDS011;4011;49.424;10.894;2023-07-22T18:30:49;4.22;;;2.63;;
7931;SDS011;4011;49.424;10.894;2023-07-22T18:36:12;3.80;;;2.65;;
7931;SDS011;4011;49.424;10.894;2023-07-22T18:41:34;4.43;;;2.60;;
7931;SDS011;4011;49.424;10.894;2023-07-22T18:46:56;4.45;;;2.50;;
7931;SDS011;4011;49.424;10.894;2023-07-22T18:52:21;4.72;;;3.15;;
7931;SDS011;4011;49.424;10.894;2023-07-22T18:57:45;4.97;;;2.97;;
7931;SDS011;4011;49.424;10.894;2023-07-22T19:03:11;4.20;;;2.80;;
7931;SDS011;4011;49.424;10.894;2023-07-22T19:08:42;5.70;;;3.10;;
7931;SDS011;4011;49.424;10.894;2023-07-22T19:14:14;4.20;;;2.17;;
7931;SDS011;4011;49.424;10.894;2023-07-22T19:19:36;4.75;;;2.80;;
7931;SDS011;4011;49.424;10.894;2023-07-22T19:25:04;4.97;;;3.10;;
7931;SDS011;4011;49.424;10.894;2023-07-22T19:30:29;4.22;;;2.50;;
7931;SDS011;4011;49.424;10.894;2023-07-22T19:36:01;3.40;;;2.25;;
7931;SDS011;4011;49.424;10.894;2023-07-22T19:41:26;4.15;;;3.08;;
7931;SDS011;4011;49.424;10.894;2023-07-22T19:46:50;6.55;;;3.33;;
7931;SDS011;4011;49.424;10.894;2023-07-22T19:52:17;5.25;;;3.03;;
7931;SDS011;4011;49.424;10.894;2023-07-22T19:57:43;5.63;;;3.00;;
7931;SDS011;4011;49.424;10.894;2023-07-22T20:03:07;5.45;;;3.15;;
7931;SDS011;4011;49.424;10.894;2023-07-22T20:08:30;5.63;;;2.80;;
7931;SDS011;4011;49.424;10.894;2023-07-22T20:13:54;7.15;;;3.28;;
7931;SDS011;4011;49.424;10.894;2023-07-22T20:25:11;5.93;;;2.90;;
7931;SDS011;4011;49.424;10.894;2023-07-22T20:30:40;4.95;;;3.10;;
7931;SDS011;4011;49.424;10.894;2023-07-22T20:36:01;5.95;;;3.15;;
7931;SDS011;4011;49.424;10.894;2023-07-22T20:41:23;7.28;;;3.15;;
7931;SDS011;4011;49.424;10.894;2023-07-22T20:46:46;5.43;;;2.92;;
7931;SDS011;4011;49.424;10.894;2023-07-22T20:52:09;6.72;;;3.47;;
7931;SDS011;4011;49.424;10.894;2023-07-22T20:57:30;5.20;;;3.97;;
7931;SDS011;4011;49.424;10.894;2023-07-22T21:02:54;6.05;;;3.45;;
7931;SDS011;4011;49.424;10.894;2023-07-22T21:08:16;6.78;;;3.40;;
7931;SDS011;4011;49.424;10.894;2023-07-22T21:13:39;7.75;;;3.65;;
7931;SDS011;4011;49.424;10.894;2023-07-22T21:19:04;10.45;;;4.10;;
7931;SDS011;4011;49.424;10.894;2023-07-22T21:24:26;7.72;;;3.42;;
7931;SDS011;4011;49.424;10.894;2023-07-22T21:29:52;8.60;;;3.60;;
7931;SDS011;4011;49.424;10.894;2023-07-22T21:35:17;6.50;;;3.90;;
7931;SDS011;4011;49.424;10.894;2023-07-22T21:40:39;8.88;;;4.35;;
7931;SDS011;4011;49.424;10.894;2023-07-22T21:46:01;6.00;;;3.40;;
7931;SDS011;4011;49.424;10.894;2023-07-22T21:51:24;9.43;;;3.80;;
7931;SDS011;4011;49.424;10.894;2023-07-22T21:56:45;8.50;;;4.05;;
7931;SDS011;4011;49.424;10.894;2023-07-22T22:02:08;6.95;;;4.50;;
7931;SDS011;4011;49.424;10.894;2023-07-22T22:07:37;7.75;;;4.15;;
7931;SDS011;4011;49.424;10.894;2023-07-22T22:13:02;5.88;;;4.20;;
7931;SDS011;4011;49.424;10.894;2023-07-22T22:18:23;7.47;;;3.92;;
7931;SDS011;4011;49.424;10.894;2023-07-22T22:23:47;5.95;;;4.55;;
7931;SDS011;4011;49.424;10.894;2023-07-22T22:29:14;7.22;;;4.18;;
7931;SDS011;4011;49.424;10.894;2023-07-22T22:34:36;6.25;;;3.97;;
7931;SDS011;4011;49.424;10.894;2023-07-22T22:39:59;6.25;;;4.13;;
7931;SDS011;4011;49.424;10.894;2023-07-22T22:45:21;6.78;;;4.00;;
7931;SDS011;4011;49.424;10.894;2023-07-22T22:50:47;5.95;;;3.80;;
7931;SDS011;4011;49.424;10.894;2023-07-22T22:56:18;7.07;;;3.88;;
7931;SDS011;4011;49.424;10.894;2023-07-22T23:01:40;6.47;;;4.07;;
7931;SDS011;4011;49.424;10.894;2023-07-22T23:07:02;5.30;;;4.22;;
7931;SDS011;4011;49.424;10.894;2023-07-22T23:12:27;5.03;;;3.22;;
7931;SDS011;4011;49.424;10.894;2023-07-22T23:17:48;7.05;;;3.92;;
7931;SDS011;4011;49.424;10.894;2023-07-22T23:23:10;5.07;;;3.92;;
7931;SDS011;4011;49.424;10.894;2023-07-22T23:28:34;5.65;;;4.10;;
7931;SDS011;4011;49.424;10.894;2023-07-22T23:33:56;5.55;;;3.72;;
7931;SDS011;4011;49.424;10.894;2023-07-22T23:39:17;5.68;;;3.55;;
7931;SDS011;4011;49.424;10.894;2023-07-22T23:44:43;5.35;;;3.70;;
7931;SDS011;4011;49.424;10.894;2023-07-22T23:50:06;5.15;;;4.18;;
7931;SDS011;4011;49.424;10.894;2023-07-22T23:55:28;4.18;;;2.95;;
